South Norfolk, Virginia
Current Conditions -  °F | °C
As of 3:51 AM on Monday 20 Oct 2014 (Local Time) from KORF Reporting Station
Clear Clear  
Wind Chill: 40°   Ceiling: Unl
Heat Index: 44°   Visibility: 10mi
Dew Point: 41°   Wind: 7mph
Humidity: 89%   Direction: 230°SW
Pressure: 30.13"   Gusts: NA
Location:  36.7998°N, 76.2734°W
Report Text: KORF 200751Z AUTO 23006KT 10SM CLR 07/05 A3013 RMK AO2 SLP201 T00670050 TSNO
Loading
Personal Weather Stations






























Interactive Weather Map
Tropical Storm Tracking
New forecast layout! Learn more

10-Day Weather Forecast

Advertisements
Track Severe Weather on mobile